createdAt,value
2023-08-15T00:00:22.929Z,16.90
2023-08-15T00:03:12.272Z,16.85
2023-08-15T00:05:41.389Z,16.81
2023-08-15T00:08:09.505Z,16.79
2023-08-15T00:10:37.513Z,16.77
2023-08-15T00:13:05.692Z,16.74
2023-08-15T00:15:33.807Z,16.71
2023-08-15T00:18:02.472Z,16.72
2023-08-15T00:20:31.128Z,16.69
2023-08-15T00:22:59.516Z,16.66
2023-08-15T00:25:27.632Z,16.64
2023-08-15T00:27:55.710Z,16.61
2023-08-15T00:30:23.708Z,16.58
2023-08-15T00:32:51.819Z,16.57
2023-08-15T00:35:19.959Z,16.54
2023-08-15T00:37:48.054Z,16.53
2023-08-15T00:40:16.346Z,16.52
2023-08-15T00:42:44.528Z,16.50
2023-08-15T00:45:12.684Z,16.49
2023-08-15T00:47:41.064Z,16.48
2023-08-15T00:50:11.010Z,16.46
2023-08-15T00:52:40.647Z,16.46
2023-08-15T00:55:11.230Z,16.45
2023-08-15T00:57:39.497Z,16.47
2023-08-15T01:00:09.233Z,16.47
2023-08-15T01:02:37.830Z,16.42
2023-08-15T01:05:09.049Z,16.37
2023-08-15T01:07:38.265Z,16.35
2023-08-15T01:10:07.165Z,16.32
2023-08-15T01:13:03.521Z,16.29
2023-08-15T01:15:35.146Z,16.28
2023-08-15T01:18:11.844Z,16.27
2023-08-15T01:20:40.680Z,16.26
2023-08-15T01:23:11.954Z,16.27
2023-08-15T01:25:42.439Z,16.29
2023-08-15T01:28:14.238Z,16.28
2023-08-15T01:30:51.000Z,16.27
2023-08-15T01:33:40.005Z,16.29
2023-08-15T01:36:20.240Z,16.27
2023-08-15T01:38:55.470Z,16.27
2023-08-15T01:41:26.263Z,16.27
2023-08-15T01:43:55.676Z,16.26
2023-08-15T01:46:24.997Z,16.26
2023-08-15T01:48:53.213Z,16.25
2023-08-15T01:51:21.854Z,16.26
2023-08-15T01:53:50.504Z,16.25
2023-08-15T01:56:18.752Z,16.24
2023-08-15T01:58:47.583Z,16.24
2023-08-15T02:01:15.651Z,16.24
2023-08-15T02:03:44.040Z,16.25
2023-08-15T02:06:12.562Z,16.24
2023-08-15T02:08:41.894Z,16.24
2023-08-15T02:11:09.929Z,16.23
2023-08-15T02:13:38.068Z,16.22
2023-08-15T02:16:06.333Z,16.21
2023-08-15T02:18:34.438Z,16.19
2023-08-15T02:21:02.497Z,16.17
2023-08-15T02:23:30.477Z,16.13
2023-08-15T02:25:58.462Z,16.09
2023-08-15T02:28:28.677Z,16.03
2023-08-15T02:30:56.739Z,16.00
2023-08-15T02:33:26.824Z,15.97
2023-08-15T02:35:55.125Z,15.95
2023-08-15T02:38:25.372Z,15.94
2023-08-15T02:40:53.490Z,15.93
2023-08-15T02:43:21.649Z,15.90
2023-08-15T02:45:49.665Z,15.89
2023-08-15T02:48:20.456Z,15.89
2023-08-15T02:50:48.522Z,15.89
2023-08-15T02:53:16.909Z,15.89
2023-08-15T02:55:44.952Z,15.90
2023-08-15T02:58:13.027Z,15.90
2023-08-15T03:00:41.307Z,15.89
2023-08-15T03:03:09.632Z,15.89
2023-08-15T03:05:39.023Z,15.90
2023-08-15T03:08:07.092Z,15.91
2023-08-15T03:10:37.693Z,15.91
2023-08-15T03:13:05.992Z,15.90
2023-08-15T03:15:35.532Z,15.89
2023-08-15T03:18:04.568Z,15.88
2023-08-15T03:20:33.430Z,15.87
2023-08-15T03:23:01.884Z,15.84
2023-08-15T03:25:32.256Z,15.81
2023-08-15T03:28:01.546Z,15.79
2023-08-15T03:30:32.375Z,15.77
2023-08-15T03:33:01.199Z,15.75
2023-08-15T03:35:29.322Z,15.74
2023-08-15T03:37:57.432Z,15.74
2023-08-15T03:40:27.716Z,15.72
2023-08-15T03:42:56.416Z,15.70
2023-08-15T03:45:24.983Z,15.68
2023-08-15T03:47:54.306Z,15.67
2023-08-15T03:50:22.341Z,15.68
2023-08-15T03:52:52.656Z,15.69
2023-08-15T03:55:22.988Z,15.71
2023-08-15T03:57:51.091Z,15.71
2023-08-15T04:00:22.718Z,15.73
2023-08-15T04:02:51.079Z,15.77
2023-08-15T04:05:19.822Z,15.80
2023-08-15T04:07:47.982Z,15.82
2023-08-15T04:10:16.365Z,15.86
2023-08-15T04:12:45.806Z,15.89
2023-08-15T04:15:13.996Z,15.91
2023-08-15T04:17:43.486Z,15.95
2023-08-15T04:20:13.905Z,15.96
2023-08-15T04:22:43.238Z,16.00
2023-08-15T04:25:11.447Z,15.99
2023-08-15T04:27:39.703Z,15.98
2023-08-15T04:30:09.790Z,16.01
2023-08-15T04:32:37.905Z,16.05
2023-08-15T04:35:07.479Z,16.06
2023-08-15T04:37:36.472Z,16.08
2023-08-15T04:40:04.865Z,16.16
2023-08-15T04:42:32.981Z,16.21
2023-08-15T04:45:02.969Z,16.24
2023-08-15T04:47:31.193Z,16.30
2023-08-15T04:49:59.297Z,16.35
2023-08-15T04:52:28.085Z,16.38
2023-08-15T04:54:56.262Z,16.40
2023-08-15T04:57:24.375Z,16.46
2023-08-15T04:59:52.543Z,16.52
2023-08-15T05:02:20.683Z,16.61
2023-08-15T05:04:50.812Z,16.69
2023-08-15T05:07:19.262Z,16.75
2023-08-15T05:09:48.752Z,16.83
2023-08-15T05:12:19.730Z,16.93
2023-08-15T05:14:47.727Z,17.02
2023-08-15T05:17:15.860Z,17.13
2023-08-15T05:19:44.613Z,17.26
2023-08-15T05:22:12.829Z,17.37
2023-08-15T05:24:40.938Z,17.46
2023-08-15T05:27:12.905Z,17.56
2023-08-15T05:29:43.003Z,17.63
2023-08-15T05:32:11.435Z,17.69
2023-08-15T05:34:39.809Z,17.78
2023-08-15T05:37:08.037Z,17.88
2023-08-15T05:39:36.381Z,17.95
2023-08-15T05:42:04.902Z,18.02
2023-08-15T05:44:33.067Z,18.10
2023-08-15T05:47:01.314Z,18.13
2023-08-15T05:49:29.380Z,18.28
2023-08-15T05:51:57.967Z,18.40
2023-08-15T05:54:26.070Z,18.51
2023-08-15T05:56:54.870Z,18.61
2023-08-15T05:59:23.218Z,18.72
2023-08-15T06:01:51.470Z,18.80
2023-08-15T06:04:21.206Z,18.90
2023-08-15T06:06:49.346Z,18.99
2023-08-15T06:09:18.786Z,19.09
2023-08-15T06:11:47.256Z,19.20
2023-08-15T06:14:15.637Z,19.31
2023-08-15T06:16:43.989Z,19.42
2023-08-15T06:19:13.243Z,19.51
2023-08-15T06:21:42.912Z,19.63
2023-08-15T06:24:13.698Z,19.76
2023-08-15T06:26:43.949Z,19.88
2023-08-15T06:29:12.151Z,20.00
2023-08-15T06:31:40.444Z,20.10
2023-08-15T06:34:08.964Z,20.19
2023-08-15T06:36:36.983Z,20.30
2023-08-15T06:39:05.192Z,20.43
2023-08-15T06:41:34.917Z,20.53
2023-08-15T06:44:03.882Z,20.66
2023-08-15T06:46:32.163Z,20.81
2023-08-15T06:49:02.849Z,20.95
2023-08-15T06:51:31.037Z,21.06
2023-08-15T06:54:00.427Z,21.24
2023-08-15T06:56:28.814Z,21.41
2023-08-15T06:58:57.327Z,21.52
2023-08-15T07:01:28.253Z,21.64
2023-08-15T07:03:57.707Z,21.80
2023-08-15T07:06:26.559Z,21.98
2023-08-15T07:08:57.044Z,22.17
2023-08-15T07:11:25.475Z,22.32
2023-08-15T07:13:53.627Z,22.45
2023-08-15T07:16:24.559Z,22.54
2023-08-15T07:18:53.923Z,22.63
2023-08-15T07:21:24.672Z,22.70
2023-08-15T07:23:52.710Z,22.80
2023-08-15T07:26:20.873Z,22.98
2023-08-15T07:28:48.984Z,23.05
2023-08-15T07:31:17.098Z,23.20
2023-08-15T07:33:46.697Z,23.36
2023-08-15T07:36:15.336Z,23.53
2023-08-15T07:38:45.400Z,23.59
2023-08-15T07:41:13.351Z,23.66
2023-08-15T07:43:42.814Z,23.64
2023-08-15T07:46:12.555Z,23.66
2023-08-15T07:48:41.200Z,23.65
2023-08-15T07:51:09.578Z,23.86
2023-08-15T07:53:37.864Z,24.04
2023-08-15T07:56:07.009Z,24.21
2023-08-15T07:58:36.600Z,24.32
2023-08-15T08:01:05.345Z,24.45
2023-08-15T08:03:33.640Z,24.61
2023-08-15T08:06:03.922Z,24.80
2023-08-15T08:08:36.417Z,24.95
2023-08-15T08:11:04.595Z,25.06
2023-08-15T08:13:32.678Z,25.30
2023-08-15T08:16:01.442Z,25.52
2023-08-15T08:18:30.260Z,25.61
2023-08-15T08:20:58.728Z,25.59
2023-08-15T08:23:26.908Z,25.73
2023-08-15T08:25:54.923Z,25.88
2023-08-15T08:28:26.930Z,26.06
2023-08-15T08:30:55.074Z,26.31
2023-08-15T08:33:23.141Z,26.41
2023-08-15T08:35:52.011Z,26.52
2023-08-15T08:38:20.852Z,26.50
2023-08-15T08:40:49.579Z,26.61
2023-08-15T08:43:19.900Z,26.85
2023-08-15T08:45:55.707Z,27.00
2023-08-15T08:48:24.601Z,27.18
2023-08-15T08:50:54.329Z,27.36
2023-08-15T08:53:22.444Z,27.48
2023-08-15T08:55:53.833Z,27.62
2023-08-15T08:58:25.809Z,27.77
2023-08-15T09:00:55.067Z,27.79
2023-08-15T09:03:23.301Z,27.86
2023-08-15T09:05:51.716Z,27.98
2023-08-15T09:08:20.256Z,28.18
2023-08-15T09:10:48.529Z,28.44
2023-08-15T09:13:24.165Z,28.58
2023-08-15T09:15:57.024Z,28.72
2023-08-15T09:18:28.192Z,28.85
2023-08-15T09:20:57.898Z,28.99
2023-08-15T09:23:26.694Z,29.06
2023-08-15T09:25:57.270Z,29.01
2023-08-15T09:28:25.545Z,28.95
2023-08-15T09:30:54.637Z,28.95
2023-08-15T09:33:30.132Z,29.24
2023-08-15T09:35:59.467Z,29.45
2023-08-15T09:38:29.031Z,29.47
2023-08-15T09:40:58.498Z,29.41
2023-08-15T09:43:27.685Z,29.72
2023-08-15T09:45:59.287Z,30.10
2023-08-15T09:48:31.543Z,30.41
2023-08-15T09:51:03.464Z,30.52
2023-08-15T09:53:34.042Z,30.57
2023-08-15T09:56:02.121Z,30.54
2023-08-15T09:58:30.185Z,30.55
2023-08-15T10:00:59.581Z,30.46
2023-08-15T10:03:28.528Z,30.38
2023-08-15T10:05:59.222Z,30.65
2023-08-15T10:08:28.687Z,30.54
2023-08-15T10:10:59.936Z,30.60
2023-08-15T10:13:48.451Z,30.75
2023-08-15T10:16:16.991Z,30.87
2023-08-15T10:18:55.821Z,30.90
2023-08-15T10:21:30.315Z,31.05
2023-08-15T10:24:08.472Z,31.30
2023-08-15T10:26:41.358Z,31.59
2023-08-15T10:29:10.676Z,31.44
2023-08-15T10:31:41.546Z,31.29
2023-08-15T10:34:20.196Z,30.95
2023-08-15T10:37:11.050Z,30.85
2023-08-15T10:39:39.681Z,30.78
2023-08-15T10:42:07.987Z,30.97
2023-08-15T10:44:39.075Z,31.30
2023-08-15T10:47:23.843Z,31.42
2023-08-15T10:49:54.420Z,31.14
2023-08-15T10:52:22.937Z,31.07
2023-08-15T10:54:52.898Z,30.87
2023-08-15T10:57:23.460Z,30.53
2023-08-15T10:59:55.048Z,30.19
2023-08-15T11:02:23.528Z,29.87
2023-08-15T11:04:51.697Z,29.63
2023-08-15T11:07:27.368Z,29.41
2023-08-15T11:09:55.637Z,29.38
2023-08-15T11:12:25.318Z,29.30
2023-08-15T11:14:58.201Z,29.38
2023-08-15T11:17:27.099Z,29.16
2023-08-15T11:19:55.343Z,29.27
2023-08-15T11:22:23.808Z,29.14
2023-08-15T11:24:52.354Z,29.17
2023-08-15T11:27:20.865Z,29.26
2023-08-15T11:30:00.011Z,29.05
2023-08-15T11:32:28.578Z,28.88
2023-08-15T11:34:57.328Z,28.73
2023-08-15T11:37:26.083Z,28.50
2023-08-15T11:39:56.109Z,28.39
2023-08-15T11:42:40.289Z,28.45
2023-08-15T11:45:25.148Z,28.47
2023-08-15T11:47:57.375Z,28.39
2023-08-15T11:50:42.153Z,28.21
2023-08-15T11:53:18.934Z,28.24
2023-08-15T11:55:48.298Z,28.19
2023-08-15T11:58:22.489Z,28.02
2023-08-15T12:01:16.691Z,28.01
2023-08-15T12:03:45.320Z,28.10
2023-08-15T12:06:15.989Z,28.31
2023-08-15T12:08:47.052Z,28.58
2023-08-15T12:11:20.515Z,28.61
2023-08-15T12:13:48.789Z,28.55
2023-08-15T12:16:17.082Z,28.23
2023-08-15T12:18:45.529Z,27.99
2023-08-15T12:21:14.937Z,28.06
2023-08-15T12:23:44.295Z,27.53
2023-08-15T12:26:12.379Z,27.40
2023-08-15T12:28:40.945Z,27.34
2023-08-15T12:31:09.570Z,27.26
2023-08-15T12:33:46.852Z,27.18
2023-08-15T12:36:16.406Z,27.07
2023-08-15T12:38:44.929Z,27.05
2023-08-15T12:41:15.380Z,27.07
2023-08-15T12:43:43.913Z,27.00
2023-08-15T12:46:12.012Z,26.84
2023-08-15T12:48:40.412Z,26.69
2023-08-15T12:51:08.606Z,26.62
2023-08-15T12:53:37.485Z,26.54
2023-08-15T12:56:06.285Z,26.43
2023-08-15T12:58:34.595Z,26.27
2023-08-15T13:01:03.822Z,26.20
2023-08-15T13:03:34.150Z,26.18
2023-08-15T13:06:03.929Z,26.09
2023-08-15T13:08:33.069Z,26.36
2023-08-15T13:11:01.255Z,27.04
2023-08-15T13:13:29.867Z,27.62
2023-08-15T13:15:57.901Z,27.77
2023-08-15T13:18:26.090Z,27.84
2023-08-15T13:20:54.898Z,28.14
2023-08-15T13:23:23.654Z,28.63
2023-08-15T13:25:51.798Z,29.33
2023-08-15T13:28:20.717Z,29.68
2023-08-15T13:30:49.036Z,29.48
2023-08-15T13:33:18.235Z,29.26
2023-08-15T13:35:46.817Z,28.98
2023-08-15T13:38:17.196Z,28.88
2023-08-15T13:40:46.440Z,28.75
2023-08-15T13:43:16.059Z,28.52
2023-08-15T13:45:45.413Z,28.24
2023-08-15T13:48:13.534Z,27.87
2023-08-15T13:50:41.767Z,27.58
2023-08-15T13:53:12.664Z,27.26
2023-08-15T13:55:40.715Z,27.19
2023-08-15T13:58:10.760Z,27.15
2023-08-15T14:00:40.314Z,27.17
2023-08-15T14:03:09.134Z,27.24
2023-08-15T14:05:37.745Z,27.29
2023-08-15T14:08:07.739Z,27.19
2023-08-15T14:10:36.570Z,27.26
2023-08-15T14:13:05.231Z,27.48
2023-08-15T14:15:34.734Z,27.69
2023-08-15T14:18:03.305Z,27.79
2023-08-15T14:20:34.762Z,27.88
2023-08-15T14:23:05.303Z,27.94
2023-08-15T14:25:33.814Z,27.95
2023-08-15T14:28:03.109Z,28.00
2023-08-15T14:30:32.374Z,28.03
2023-08-15T14:33:00.506Z,27.91
2023-08-15T14:35:28.785Z,28.04
2023-08-15T14:37:56.944Z,28.16
2023-08-15T14:40:25.540Z,28.30
2023-08-15T14:42:54.086Z,28.33
2023-08-15T14:45:23.294Z,28.45
2023-08-15T14:47:52.026Z,28.62
2023-08-15T14:50:20.162Z,28.70
2023-08-15T14:52:48.279Z,28.76
2023-08-15T14:55:18.668Z,28.65
2023-08-15T14:57:46.768Z,28.73
2023-08-15T15:00:15.788Z,28.72
2023-08-15T15:02:44.225Z,28.74
2023-08-15T15:05:12.717Z,28.74
2023-08-15T15:07:40.846Z,28.92
2023-08-15T15:10:09.362Z,29.25
2023-08-15T15:12:38.288Z,29.39
2023-08-15T15:15:07.441Z,29.31
2023-08-15T15:17:35.904Z,29.20
2023-08-15T15:20:06.763Z,29.25
2023-08-15T15:22:35.050Z,29.09
2023-08-15T15:25:04.797Z,29.15
2023-08-15T15:27:32.959Z,28.88
2023-08-15T15:30:01.543Z,28.86
2023-08-15T15:32:30.501Z,28.86
2023-08-15T15:34:58.612Z,28.89
2023-08-15T15:37:27.730Z,29.39
2023-08-15T15:39:56.398Z,30.17
2023-08-15T15:42:25.173Z,31.08
2023-08-15T15:44:54.064Z,31.29
2023-08-15T15:47:23.522Z,31.48
2023-08-15T15:49:51.897Z,32.01
2023-08-15T15:52:20.446Z,32.63
2023-08-15T15:54:48.809Z,33.06
2023-08-15T15:57:18.140Z,32.94
2023-08-15T15:59:47.481Z,33.20
2023-08-15T16:02:15.644Z,33.56
2023-08-15T16:04:47.754Z,33.88
2023-08-15T16:07:16.760Z,33.45
2023-08-15T16:09:46.052Z,32.54
2023-08-15T16:12:14.880Z,31.65
2023-08-15T16:14:43.574Z,30.88
2023-08-15T16:17:13.117Z,31.16
2023-08-15T16:19:41.159Z,31.67
2023-08-15T16:22:09.763Z,32.17
2023-08-15T16:24:38.048Z,32.23
2023-08-15T16:27:09.068Z,31.76
2023-08-15T16:29:37.235Z,31.47
2023-08-15T16:32:06.573Z,31.19
2023-08-15T16:34:34.835Z,30.50
2023-08-15T16:37:02.929Z,29.89
2023-08-15T16:39:31.114Z,29.82
2023-08-15T16:42:01.119Z,29.68
2023-08-15T16:44:30.121Z,29.27
2023-08-15T16:46:58.264Z,28.82
2023-08-15T16:49:27.240Z,28.42
2023-08-15T16:51:56.056Z,28.02
2023-08-15T16:54:24.420Z,27.81
2023-08-15T16:56:52.452Z,27.63
2023-08-15T16:59:20.528Z,27.41
2023-08-15T17:01:48.950Z,27.21
2023-08-15T17:04:17.426Z,26.99
2023-08-15T17:06:45.501Z,26.76
2023-08-15T17:09:13.688Z,26.60
2023-08-15T17:11:41.747Z,26.38
2023-08-15T17:14:09.908Z,26.23
2023-08-15T17:16:40.877Z,26.13
2023-08-15T17:19:09.825Z,26.04
2023-08-15T17:21:39.740Z,25.91
2023-08-15T17:24:09.721Z,25.77
2023-08-15T17:26:39.246Z,25.65
2023-08-15T17:29:07.385Z,25.54
2023-08-15T17:31:37.490Z,25.53
2023-08-15T17:34:05.562Z,25.37
2023-08-15T17:36:33.721Z,25.27
2023-08-15T17:39:02.681Z,25.17
2023-08-15T17:41:30.954Z,25.11
2023-08-15T17:43:59.108Z,24.98
2023-08-15T17:46:27.513Z,24.88
2023-08-15T17:48:55.988Z,24.77
2023-08-15T17:51:24.059Z,24.63
2023-08-15T17:53:52.179Z,24.50
2023-08-15T17:56:20.839Z,24.35
2023-08-15T17:58:52.302Z,24.22
2023-08-15T18:01:20.855Z,24.15
2023-08-15T18:03:49.396Z,24.05
2023-08-15T18:06:17.722Z,23.91
2023-08-15T18:08:45.896Z,23.78
2023-08-15T18:11:15.307Z,23.70
2023-08-15T18:13:43.489Z,23.62
2023-08-15T18:16:12.351Z,23.53
2023-08-15T18:18:40.907Z,23.44
2023-08-15T18:21:09.191Z,23.41
2023-08-15T18:23:39.031Z,23.36
2023-08-15T18:26:09.384Z,23.32
2023-08-15T18:28:37.573Z,23.23
2023-08-15T18:31:08.717Z,23.17
2023-08-15T18:33:36.858Z,23.11
2023-08-15T18:36:06.268Z,23.03
2023-08-15T18:38:34.373Z,22.97
2023-08-15T18:41:02.444Z,22.87
2023-08-15T18:43:31.690Z,22.82
2023-08-15T18:46:01.857Z,22.76
2023-08-15T18:48:30.089Z,22.68
2023-08-15T18:50:58.263Z,22.63
2023-08-15T18:53:26.378Z,22.59
2023-08-15T18:55:54.444Z,22.55
2023-08-15T18:58:22.687Z,22.51
2023-08-15T19:00:50.784Z,22.48
2023-08-15T19:03:20.241Z,22.47
2023-08-15T19:05:49.500Z,22.47
2023-08-15T19:08:17.671Z,22.43
2023-08-15T19:10:48.308Z,22.40
2023-08-15T19:13:22.462Z,22.34
2023-08-15T19:15:51.292Z,22.28
2023-08-15T19:18:19.541Z,22.16
2023-08-15T19:20:47.547Z,22.05
2023-08-15T19:23:16.284Z,21.99
2023-08-15T19:25:44.366Z,21.93
2023-08-15T19:28:12.505Z,21.89
2023-08-15T19:30:42.877Z,21.86
2023-08-15T19:33:11.191Z,21.84
2023-08-15T19:35:39.698Z,21.81
2023-08-15T19:38:07.843Z,21.78
2023-08-15T19:40:36.252Z,21.74
2023-08-15T19:43:04.478Z,21.72
2023-08-15T19:45:32.580Z,21.68
2023-08-15T19:48:00.600Z,21.63
2023-08-15T19:50:30.276Z,21.55
2023-08-15T19:52:58.624Z,21.52
2023-08-15T19:55:31.542Z,21.49
2023-08-15T19:58:00.733Z,21.47
2023-08-15T20:00:28.883Z,21.45
2023-08-15T20:02:57.190Z,21.40
2023-08-15T20:05:25.510Z,21.34
2023-08-15T20:07:53.603Z,21.28
2023-08-15T20:10:21.725Z,21.18
2023-08-15T20:12:49.832Z,21.08
2023-08-15T20:15:17.957Z,20.98
2023-08-15T20:17:48.316Z,20.93
2023-08-15T20:20:16.599Z,20.89
2023-08-15T20:22:45.251Z,20.85
2023-08-15T20:25:14.627Z,20.81
2023-08-15T20:27:43.389Z,20.75
2023-08-15T20:30:12.309Z,20.72
2023-08-15T20:32:40.716Z,20.69
2023-08-15T20:35:11.414Z,20.66
2023-08-15T20:37:39.581Z,20.59
2023-08-15T20:40:12.871Z,20.53
2023-08-15T20:42:41.982Z,20.43
2023-08-15T20:45:15.121Z,20.36
2023-08-15T20:47:43.712Z,20.29
2023-08-15T20:50:11.999Z,20.25
2023-08-15T20:52:40.560Z,20.19
2023-08-15T20:55:12.544Z,20.11
2023-08-15T20:57:43.179Z,20.08
2023-08-15T21:00:13.633Z,19.95
2023-08-15T21:02:41.971Z,19.82
2023-08-15T21:05:11.029Z,19.71
2023-08-15T21:07:40.271Z,19.61
2023-08-15T21:10:08.849Z,19.54
2023-08-15T21:12:37.184Z,19.48
2023-08-15T21:15:06.087Z,19.43
2023-08-15T21:17:34.354Z,19.38
2023-08-15T21:20:02.437Z,19.36
2023-08-15T21:22:31.478Z,19.33
2023-08-15T21:24:59.582Z,19.31
2023-08-15T21:27:31.045Z,19.28
2023-08-15T21:29:59.278Z,19.27
2023-08-15T21:32:28.408Z,19.26
2023-08-15T21:34:56.645Z,19.26
2023-08-15T21:37:25.947Z,19.23
2023-08-15T21:39:54.077Z,19.22
2023-08-15T21:42:22.123Z,19.20
2023-08-15T21:44:50.369Z,19.18
2023-08-15T21:47:18.602Z,19.14
2023-08-15T21:49:46.965Z,19.11
2023-08-15T21:52:15.153Z,19.06
2023-08-15T21:54:43.560Z,19.02
2023-08-15T21:57:11.640Z,18.99
2023-08-15T21:59:39.746Z,18.94
2023-08-15T22:02:09.209Z,18.90
2023-08-15T22:04:37.484Z,18.87
2023-08-15T22:07:05.595Z,18.85
2023-08-15T22:09:33.999Z,18.81
2023-08-15T22:12:02.046Z,18.81
2023-08-15T22:14:30.634Z,18.80
2023-08-15T22:16:58.816Z,18.79
2023-08-15T22:19:27.012Z,18.78
2023-08-15T22:21:55.625Z,18.78
2023-08-15T22:24:24.924Z,18.77
2023-08-15T22:26:53.181Z,18.73
2023-08-15T22:29:21.280Z,18.74
2023-08-15T22:31:49.487Z,18.72
2023-08-15T22:34:18.465Z,18.70
2023-08-15T22:36:48.633Z,18.68
2023-08-15T22:39:17.246Z,18.65
2023-08-15T22:41:45.368Z,18.62
2023-08-15T22:44:13.369Z,18.59
2023-08-15T22:46:41.556Z,18.55
2023-08-15T22:49:10.099Z,18.51
2023-08-15T22:51:38.189Z,18.48
2023-08-15T22:54:06.723Z,18.46
2023-08-15T22:56:35.754Z,18.42
2023-08-15T22:59:04.365Z,18.39
2023-08-15T23:01:32.564Z,18.37
2023-08-15T23:04:00.766Z,18.31
2023-08-15T23:06:29.867Z,18.28
2023-08-15T23:08:57.845Z,18.24
2023-08-15T23:11:28.999Z,18.18
2023-08-15T23:13:57.290Z,18.16
2023-08-15T23:16:25.328Z,18.13
2023-08-15T23:18:53.333Z,18.12
2023-08-15T23:21:21.404Z,18.10
2023-08-15T23:23:50.210Z,18.08
2023-08-15T23:26:18.296Z,18.05
2023-08-15T23:28:46.250Z,18.03
2023-08-15T23:31:14.473Z,18.02
2023-08-15T23:33:45.258Z,18.00
2023-08-15T23:36:14.420Z,17.98
2023-08-15T23:38:42.583Z,17.97
2023-08-15T23:41:10.615Z,17.99
2023-08-15T23:43:38.921Z,18.02
2023-08-15T23:46:06.969Z,18.04
2023-08-15T23:48:35.038Z,18.07
2023-08-15T23:51:03.102Z,18.10
2023-08-15T23:53:31.257Z,18.10
2023-08-15T23:55:59.352Z,18.10
2023-08-15T23:58:27.934Z,18.10
